createdAt,value
2022-11-17T00:01:10.156Z,99413.41
2022-11-17T00:06:15.147Z,99405.13
2022-11-17T00:11:18.272Z,99402.69
2022-11-17T00:16:22.506Z,99397.19
2022-11-17T00:21:28.977Z,99391.16
2022-11-17T00:26:33.708Z,99395.69
2022-11-17T00:31:53.830Z,99400.66
2022-11-17T00:36:58.642Z,99374.31
2022-11-17T00:42:01.707Z,99381.44
2022-11-17T00:47:04.878Z,99382.84
2022-11-17T00:52:10.648Z,99380.09
2022-11-17T00:57:13.815Z,99382.00
2022-11-17T01:02:16.969Z,99378.41
2022-11-17T01:07:22.971Z,99364.28
2022-11-17T01:12:26.185Z,99360.50
2022-11-17T01:17:29.353Z,99351.63
2022-11-17T01:22:33.918Z,99349.84
2022-11-17T01:27:37.105Z,99345.50
2022-11-17T01:32:40.286Z,99341.31
2022-11-17T01:37:44.943Z,99334.34
2022-11-17T01:42:47.849Z,99341.72
2022-11-17T01:47:53.877Z,99337.91
2022-11-17T01:53:01.646Z,99334.34
2022-11-17T01:58:09.744Z,99335.06
2022-11-17T02:03:13.605Z,99322.53
2022-11-17T02:08:20.861Z,99319.78
2022-11-17T02:13:24.852Z,99328.66
2022-11-17T02:18:28.230Z,99326.03
2022-11-17T02:24:08.956Z,99315.47
2022-11-17T02:29:20.756Z,99318.13
2022-11-17T02:34:35.991Z,99330.13
2022-11-17T02:39:45.304Z,99333.50
2022-11-17T02:44:58.036Z,99328.22
2022-11-17T02:50:05.134Z,99335.41
2022-11-17T02:55:10.565Z,99335.41
2022-11-17T03:00:17.894Z,99318.84
2022-11-17T03:05:28.381Z,99317.16
2022-11-17T03:10:45.870Z,99323.16
2022-11-17T03:15:56.628Z,99310.84
2022-11-17T03:21:11.873Z,99310.94
2022-11-17T03:26:22.265Z,99315.25
2022-11-17T03:31:29.158Z,99310.94
2022-11-17T03:36:37.986Z,99296.88
2022-11-17T03:41:45.966Z,99297.84
2022-11-17T03:46:54.443Z,99289.84
2022-11-17T03:51:57.913Z,99284.56
2022-11-17T03:57:07.648Z,99272.13
2022-11-17T04:02:15.360Z,99280.66
2022-11-17T04:07:18.618Z,99337.31
2022-11-17T04:12:39.328Z,99333.16
2022-11-17T04:17:43.880Z,99346.78
2022-11-17T04:23:07.079Z,99350.78
2022-11-17T04:28:27.615Z,99359.19
2022-11-17T04:33:32.364Z,99367.78
2022-11-17T04:38:35.922Z,99372.09
2022-11-17T04:43:39.216Z,99375.97
2022-11-17T04:48:43.967Z,99392.06
2022-11-17T04:53:47.603Z,99414.69
2022-11-17T04:58:51.141Z,99443.22
2022-11-17T05:03:57.439Z,99464.66
2022-11-17T05:09:02.888Z,99490.63
2022-11-17T05:14:06.060Z,99472.69
2022-11-17T05:19:12.476Z,99467.16
2022-11-17T05:24:16.162Z,99469.78
2022-11-17T05:29:21.397Z,99476.84
2022-11-17T05:34:26.058Z,99482.38
2022-11-17T05:39:28.945Z,99479.19
2022-11-17T05:44:32.249Z,99478.25
2022-11-17T05:49:36.899Z,99482.03
2022-11-17T05:54:40.140Z,99472.44
2022-11-17T05:59:47.445Z,99489.16
2022-11-17T06:04:53.064Z,99491.88
2022-11-17T06:09:56.473Z,99491.69
2022-11-17T06:14:59.760Z,99489.94
2022-11-17T06:20:08.881Z,99491.69
2022-11-17T06:25:12.623Z,99496.13
2022-11-17T06:30:15.994Z,99495.19
2022-11-17T06:35:21.085Z,99496.94
2022-11-17T06:40:24.374Z,99484.44
2022-11-17T06:45:27.896Z,99491.50
2022-11-17T06:50:32.876Z,99491.31
2022-11-17T06:55:36.996Z,99510.97
2022-11-17T07:00:40.416Z,99499.31
2022-11-17T07:05:45.219Z,99507.94
2022-11-17T07:10:54.696Z,99494.31
2022-11-17T07:16:04.739Z,99487.09
2022-11-17T07:21:11.140Z,99491.50
2022-11-17T07:26:14.643Z,99494.06
2022-11-17T07:31:17.938Z,99500.06
2022-11-17T07:36:22.641Z,99507.78
2022-11-17T07:41:25.585Z,99509.94
2022-11-17T07:46:28.831Z,99531.06
2022-11-17T07:51:33.430Z,99534.44
2022-11-17T07:56:36.679Z,99530.06
2022-11-17T08:01:40.106Z,99546.69
2022-11-17T08:06:45.437Z,99553.16
2022-11-17T08:11:48.896Z,99555.03
2022-11-17T08:16:52.176Z,99566.41
2022-11-17T08:21:56.805Z,99578.34
2022-11-17T08:27:00.027Z,99583.63
2022-11-17T08:32:03.189Z,99587.13
2022-11-17T08:37:07.769Z,99593.03
2022-11-17T08:42:10.939Z,99595.75
2022-11-17T08:47:14.155Z,99589.47
2022-11-17T08:52:19.532Z,99589.38
2022-11-17T08:57:23.019Z,99579.41
2022-11-17T09:02:26.350Z,99586.19
2022-11-17T09:07:35.045Z,99576.19
2022-11-17T09:12:38.507Z,99573.22
2022-11-17T09:17:43.160Z,99582.78
2022-11-17T09:22:47.615Z,99586.13
2022-11-17T09:27:51.330Z,99591.13
2022-11-17T09:32:54.481Z,99597.16
2022-11-17T09:38:02.158Z,99605.72
2022-11-17T09:43:09.718Z,99620.88
2022-11-17T09:48:40.375Z,99623.22
2022-11-17T09:53:47.359Z,99630.00
2022-11-17T09:58:56.399Z,99619.75
2022-11-17T10:04:01.651Z,99631.50
2022-11-17T10:09:13.014Z,99621.91
2022-11-17T10:14:18.211Z,99603.19
2022-11-17T10:19:23.754Z,99611.88
2022-11-17T10:24:41.687Z,99592.09
2022-11-17T10:29:58.035Z,99589.16
2022-11-17T10:35:15.937Z,99597.16
2022-11-17T10:40:25.690Z,99587.59
2022-11-17T10:45:30.033Z,99591.50
2022-11-17T10:50:33.368Z,99590.88
2022-11-17T10:55:39.179Z,99588.44
2022-11-17T11:00:44.634Z,99574.38
2022-11-17T11:05:57.834Z,99573.31
2022-11-17T11:11:04.716Z,99567.41
2022-11-17T11:16:10.673Z,99567.19
2022-11-17T11:21:22.159Z,99560.19
2022-11-17T11:26:39.270Z,99555.59
2022-11-17T11:31:53.027Z,99565.34
2022-11-17T11:37:01.633Z,99573.22
2022-11-17T11:42:32.322Z,99602.81
2022-11-17T11:47:55.325Z,99607.78
2022-11-17T11:53:05.182Z,99610.44
2022-11-17T11:58:16.704Z,99600.47
2022-11-17T12:03:26.593Z,99598.94
2022-11-17T12:08:39.787Z,99589.63
2022-11-17T12:13:49.907Z,99589.69
2022-11-17T12:18:57.210Z,99575.25
2022-11-17T12:24:20.018Z,99568.34
2022-11-17T12:29:48.665Z,99571.56
2022-11-17T12:35:25.487Z,99565.50
2022-11-17T12:40:54.068Z,99550.09
2022-11-17T12:46:20.647Z,99558.41
2022-11-17T12:51:31.931Z,99552.81
2022-11-17T12:56:52.431Z,99549.53
2022-11-17T13:02:05.867Z,99547.50
2022-11-17T13:07:18.294Z,99543.63
2022-11-17T13:12:26.503Z,99538.00
2022-11-17T13:17:33.898Z,99547.09
2022-11-17T13:22:41.803Z,99534.63
2022-11-17T13:27:52.573Z,99525.56
2022-11-17T13:33:03.252Z,99528.03
2022-11-17T13:38:17.197Z,99538.22
2022-11-17T13:43:23.003Z,99556.63
2022-11-17T13:48:42.806Z,99576.06
2022-11-17T13:53:48.916Z,99597.91
2022-11-17T13:58:53.661Z,99588.16
2022-11-17T14:04:15.318Z,99594.81
2022-11-17T14:09:26.742Z,99596.63
2022-11-17T14:14:36.956Z,99594.81
2022-11-17T14:19:42.365Z,99592.81
2022-11-17T14:24:49.379Z,99592.53
2022-11-17T14:29:53.545Z,99596.75
2022-11-17T14:34:58.778Z,99598.38
2022-11-17T14:40:06.013Z,99599.69
2022-11-17T14:45:10.592Z,99608.19
2022-11-17T14:50:15.356Z,99609.28
2022-11-17T14:55:22.512Z,99601.97
2022-11-17T15:00:26.666Z,99597.06
2022-11-17T15:05:32.207Z,99591.59
2022-11-17T15:10:37.010Z,99580.56
2022-11-17T15:15:40.377Z,99582.34
2022-11-17T15:20:46.676Z,99573.25
2022-11-17T15:26:26.094Z,99566.50
2022-11-17T15:31:33.312Z,99570.13
2022-11-17T15:36:58.730Z,99561.19
2022-11-17T15:42:04.167Z,99568.06
2022-11-17T15:47:41.744Z,99561.69
2022-11-17T15:53:04.017Z,99556.16
2022-11-17T15:58:39.068Z,99562.94
2022-11-17T16:03:49.490Z,99559.16
2022-11-17T16:08:52.662Z,99563.09
2022-11-17T16:13:56.267Z,99561.34
2022-11-17T16:19:00.922Z,99557.31
2022-11-17T16:24:04.642Z,99584.66
2022-11-17T16:29:08.940Z,99587.50
2022-11-17T16:34:15.625Z,99582.41
2022-11-17T16:39:20.056Z,99599.91
2022-11-17T16:44:23.537Z,99603.75
2022-11-17T16:49:30.158Z,99609.25
2022-11-17T16:54:33.363Z,99619.28
2022-11-17T16:59:36.707Z,99623.72
2022-11-17T17:04:41.311Z,99619.25
2022-11-17T17:09:44.575Z,99613.88
2022-11-17T17:14:47.772Z,99626.94
2022-11-17T17:19:52.519Z,99635.00
2022-11-17T17:24:55.566Z,99635.94
2022-11-17T17:29:58.771Z,99639.16
2022-11-17T17:35:03.526Z,99640.50
2022-11-17T17:40:07.130Z,99639.91
2022-11-17T17:45:11.188Z,99644.06
2022-11-17T17:50:15.919Z,99649.31
2022-11-17T17:55:18.818Z,99651.44
2022-11-17T18:00:22.300Z,99645.34
2022-11-17T18:05:27.336Z,99647.22
2022-11-17T18:10:30.776Z,99649.94
2022-11-17T18:15:33.901Z,99646.38
2022-11-17T18:20:38.699Z,99650.00
2022-11-17T18:25:41.570Z,99653.59
2022-11-17T18:30:44.800Z,99661.38
2022-11-17T18:35:49.384Z,99678.03
2022-11-17T18:40:55.521Z,99678.69
2022-11-17T18:46:04.570Z,99679.78
2022-11-17T18:51:19.533Z,99675.97
2022-11-17T18:56:26.026Z,99676.75
2022-11-17T19:01:31.673Z,99678.94
2022-11-17T19:06:36.414Z,99674.63
2022-11-17T19:11:39.580Z,99674.72
2022-11-17T19:16:44.843Z,99682.41
2022-11-17T19:21:49.870Z,99690.22
2022-11-17T19:26:53.139Z,99681.47
2022-11-17T19:31:56.333Z,99688.53
2022-11-17T19:37:00.917Z,99683.13
2022-11-17T19:42:04.125Z,99687.34
2022-11-17T19:47:07.367Z,99680.66
2022-11-17T19:52:12.015Z,99684.56
2022-11-17T19:57:15.197Z,99700.50
2022-11-17T20:02:18.475Z,99706.50
2022-11-17T20:07:23.085Z,99713.81
2022-11-17T20:12:26.381Z,99712.28
2022-11-17T20:17:29.671Z,99729.72
2022-11-17T20:22:34.545Z,99726.50
2022-11-17T20:27:37.742Z,99733.31
2022-11-17T20:32:40.981Z,99735.19
2022-11-17T20:37:45.583Z,99737.22
2022-11-17T20:42:48.818Z,99744.66
2022-11-17T20:47:52.063Z,99759.06
2022-11-17T20:52:56.742Z,99769.38
2022-11-17T20:57:59.986Z,99765.31
2022-11-17T21:03:03.595Z,99764.47
2022-11-17T21:08:08.572Z,99783.63
2022-11-17T21:13:11.862Z,99801.94
2022-11-17T21:18:27.390Z,99804.66
2022-11-17T21:23:32.875Z,99801.94
2022-11-17T21:28:37.159Z,99809.66
2022-11-17T21:33:40.924Z,99802.97
2022-11-17T21:38:46.914Z,99806.66
2022-11-17T21:43:52.232Z,99804.53
2022-11-17T21:48:57.198Z,99810.47
2022-11-17T21:54:03.779Z,99808.94
2022-11-17T21:59:10.949Z,99804.88
2022-11-17T22:04:15.954Z,99812.41
2022-11-17T22:09:20.644Z,99826.22
2022-11-17T22:14:23.977Z,99821.34
2022-11-17T22:19:29.262Z,99834.50
2022-11-17T22:24:33.865Z,99839.53
2022-11-17T22:29:37.029Z,99825.69
2022-11-17T22:34:40.245Z,99824.94
2022-11-17T22:39:45.772Z,99822.59
2022-11-17T22:44:48.947Z,99830.66
2022-11-17T22:49:52.168Z,99830.81
2022-11-17T22:54:56.781Z,99829.56
2022-11-17T22:59:59.970Z,99825.16
2022-11-17T23:05:03.183Z,99830.63
2022-11-17T23:10:08.287Z,99828.88
2022-11-17T23:15:11.773Z,99827.16
2022-11-17T23:20:15.014Z,99834.81
2022-11-17T23:25:19.601Z,99837.44
2022-11-17T23:30:22.782Z,99831.59
2022-11-17T23:35:26.634Z,99831.72
2022-11-17T23:40:31.236Z,99833.72
2022-11-17T23:45:34.438Z,99828.81
2022-11-17T23:50:38.486Z,99830.81
2022-11-17T23:55:43.088Z,99826.53
